sensor_id;sensor_type;location;lat;lon;timestamp;P1;durP1;ratioP1;P2;durP2;ratioP2
13040;SDS011;6587;42.728;23.288;2023-06-14T00:02:02;8.10;;;6.07;;
13040;SDS011;6587;42.728;23.288;2023-06-14T00:04:29;10.43;;;6.10;;
13040;SDS011;6587;42.728;23.288;2023-06-14T00:06:56;9.23;;;6.73;;
13040;SDS011;6587;42.728;23.288;2023-06-14T00:09:23;7.93;;;6.07;;
13040;SDS011;6587;42.728;23.288;2023-06-14T00:11:50;8.27;;;6.43;;
13040;SDS011;6587;42.728;23.288;2023-06-14T00:14:18;10.17;;;6.07;;
13040;SDS011;6587;42.728;23.288;2023-06-14T00:16:45;8.40;;;6.27;;
13040;SDS011;6587;42.728;23.288;2023-06-14T00:19:12;9.93;;;6.70;;
13040;SDS011;6587;42.728;23.288;2023-06-14T00:21:39;7.27;;;6.03;;
13040;SDS011;6587;42.728;23.288;2023-06-14T00:24:07;8.93;;;6.60;;
13040;SDS011;6587;42.728;23.288;2023-06-14T00:26:34;8.73;;;6.37;;
13040;SDS011;6587;42.728;23.288;2023-06-14T00:29:01;8.33;;;6.47;;
13040;SDS011;6587;42.728;23.288;2023-06-14T00:31:29;8.57;;;6.53;;
13040;SDS011;6587;42.728;23.288;2023-06-14T00:33:56;8.60;;;6.47;;
13040;SDS011;6587;42.728;23.288;2023-06-14T00:36:23;9.20;;;7.07;;
13040;SDS011;6587;42.728;23.288;2023-06-14T00:38:49;10.43;;;7.07;;
13040;SDS011;6587;42.728;23.288;2023-06-14T00:41:16;8.50;;;6.63;;
13040;SDS011;6587;42.728;23.288;2023-06-14T00:43:43;9.93;;;7.50;;
13040;SDS011;6587;42.728;23.288;2023-06-14T00:46:10;10.07;;;6.90;;
13040;SDS011;6587;42.728;23.288;2023-06-14T00:48:38;11.57;;;7.33;;
13040;SDS011;6587;42.728;23.288;2023-06-14T00:51:06;9.07;;;7.10;;
13040;SDS011;6587;42.728;23.288;2023-06-14T00:53:33;9.13;;;7.20;;
13040;SDS011;6587;42.728;23.288;2023-06-14T00:56:01;9.57;;;7.33;;
13040;SDS011;6587;42.728;23.288;2023-06-14T00:58:28;10.27;;;7.27;;
13040;SDS011;6587;42.728;23.288;2023-06-14T01:00:56;10.47;;;7.40;;
13040;SDS011;6587;42.728;23.288;2023-06-14T01:03:24;9.20;;;7.47;;
13040;SDS011;6587;42.728;23.288;2023-06-14T01:05:56;8.53;;;7.20;;
13040;SDS011;6587;42.728;23.288;2023-06-14T01:08:31;12.47;;;8.03;;
13040;SDS011;6587;42.728;23.288;2023-06-14T01:11:12;9.90;;;7.20;;
13040;SDS011;6587;42.728;23.288;2023-06-14T01:13:46;12.03;;;7.83;;
13040;SDS011;6587;42.728;23.288;2023-06-14T01:16:13;9.47;;;7.67;;
13040;SDS011;6587;42.728;23.288;2023-06-14T01:18:40;11.57;;;8.27;;
13040;SDS011;6587;42.728;23.288;2023-06-14T01:21:21;11.70;;;8.07;;
13040;SDS011;6587;42.728;23.288;2023-06-14T01:23:50;11.07;;;7.97;;
13040;SDS011;6587;42.728;23.288;2023-06-14T01:26:18;12.53;;;8.00;;
13040;SDS011;6587;42.728;23.288;2023-06-14T01:28:46;13.40;;;8.27;;
13040;SDS011;6587;42.728;23.288;2023-06-14T01:31:16;18.47;;;8.20;;
13040;SDS011;6587;42.728;23.288;2023-06-14T01:33:47;10.40;;;7.57;;
13040;SDS011;6587;42.728;23.288;2023-06-14T01:36:16;10.37;;;7.70;;
13040;SDS011;6587;42.728;23.288;2023-06-14T01:38:45;9.10;;;7.17;;
13040;SDS011;6587;42.728;23.288;2023-06-14T01:41:15;9.77;;;7.53;;
13040;SDS011;6587;42.728;23.288;2023-06-14T01:43:43;9.30;;;7.03;;
13040;SDS011;6587;42.728;23.288;2023-06-14T01:46:11;12.30;;;7.63;;
13040;SDS011;6587;42.728;23.288;2023-06-14T01:48:41;12.00;;;7.93;;
13040;SDS011;6587;42.728;23.288;2023-06-14T01:51:08;10.07;;;7.93;;
13040;SDS011;6587;42.728;23.288;2023-06-14T01:53:35;11.07;;;7.80;;
13040;SDS011;6587;42.728;23.288;2023-06-14T01:56:02;9.30;;;7.47;;
13040;SDS011;6587;42.728;23.288;2023-06-14T01:58:31;12.43;;;7.67;;
13040;SDS011;6587;42.728;23.288;2023-06-14T02:00:58;10.47;;;7.90;;
13040;SDS011;6587;42.728;23.288;2023-06-14T02:03:27;10.93;;;7.93;;
13040;SDS011;6587;42.728;23.288;2023-06-14T02:05:54;9.70;;;7.53;;
13040;SDS011;6587;42.728;23.288;2023-06-14T02:08:21;11.57;;;7.70;;
13040;SDS011;6587;42.728;23.288;2023-06-14T02:10:48;11.47;;;7.57;;
13040;SDS011;6587;42.728;23.288;2023-06-14T02:13:15;11.07;;;8.17;;
13040;SDS011;6587;42.728;23.288;2023-06-14T02:15:43;11.37;;;7.70;;
13040;SDS011;6587;42.728;23.288;2023-06-14T02:18:12;9.80;;;7.80;;
13040;SDS011;6587;42.728;23.288;2023-06-14T02:20:38;13.47;;;7.77;;
13040;SDS011;6587;42.728;23.288;2023-06-14T02:23:05;9.13;;;7.30;;
13040;SDS011;6587;42.728;23.288;2023-06-14T02:25:33;12.83;;;7.93;;
13040;SDS011;6587;42.728;23.288;2023-06-14T02:28:00;11.93;;;7.40;;
13040;SDS011;6587;42.728;23.288;2023-06-14T02:30:27;10.17;;;7.70;;
13040;SDS011;6587;42.728;23.288;2023-06-14T02:32:56;12.20;;;7.37;;
13040;SDS011;6587;42.728;23.288;2023-06-14T02:35:24;11.73;;;8.03;;
13040;SDS011;6587;42.728;23.288;2023-06-14T02:37:52;10.00;;;7.57;;
13040;SDS011;6587;42.728;23.288;2023-06-14T02:40:21;10.73;;;7.57;;
13040;SDS011;6587;42.728;23.288;2023-06-14T02:42:48;9.77;;;6.70;;
13040;SDS011;6587;42.728;23.288;2023-06-14T02:45:15;11.70;;;7.47;;
13040;SDS011;6587;42.728;23.288;2023-06-14T02:47:43;9.47;;;7.23;;
13040;SDS011;6587;42.728;23.288;2023-06-14T02:50:13;10.30;;;8.00;;
13040;SDS011;6587;42.728;23.288;2023-06-14T02:52:41;10.40;;;7.43;;
13040;SDS011;6587;42.728;23.288;2023-06-14T02:55:09;12.80;;;8.03;;
13040;SDS011;6587;42.728;23.288;2023-06-14T02:57:37;10.83;;;7.63;;
13040;SDS011;6587;42.728;23.288;2023-06-14T03:00:06;10.43;;;6.87;;
13040;SDS011;6587;42.728;23.288;2023-06-14T03:02:36;10.90;;;7.27;;
13040;SDS011;6587;42.728;23.288;2023-06-14T03:05:03;19.50;;;8.57;;
13040;SDS011;6587;42.728;23.288;2023-06-14T03:07:34;15.70;;;8.00;;
13040;SDS011;6587;42.728;23.288;2023-06-14T03:10:07;11.50;;;7.83;;
13040;SDS011;6587;42.728;23.288;2023-06-14T03:12:34;11.43;;;8.37;;
13040;SDS011;6587;42.728;23.288;2023-06-14T03:15:02;11.53;;;7.73;;
13040;SDS011;6587;42.728;23.288;2023-06-14T03:17:35;11.50;;;8.20;;
13040;SDS011;6587;42.728;23.288;2023-06-14T03:20:05;11.17;;;6.93;;
13040;SDS011;6587;42.728;23.288;2023-06-14T03:22:35;12.40;;;8.13;;
13040;SDS011;6587;42.728;23.288;2023-06-14T03:25:03;14.00;;;8.10;;
13040;SDS011;6587;42.728;23.288;2023-06-14T03:27:33;11.57;;;7.17;;
13040;SDS011;6587;42.728;23.288;2023-06-14T03:30:01;12.30;;;8.10;;
13040;SDS011;6587;42.728;23.288;2023-06-14T03:32:30;12.17;;;7.80;;
13040;SDS011;6587;42.728;23.288;2023-06-14T03:34:58;13.93;;;8.33;;
13040;SDS011;6587;42.728;23.288;2023-06-14T03:37:25;15.10;;;7.43;;
13040;SDS011;6587;42.728;23.288;2023-06-14T03:39:54;13.17;;;7.30;;
13040;SDS011;6587;42.728;23.288;2023-06-14T03:42:23;10.50;;;7.43;;
13040;SDS011;6587;42.728;23.288;2023-06-14T03:44:50;12.33;;;7.90;;
13040;SDS011;6587;42.728;23.288;2023-06-14T03:47:19;14.40;;;7.80;;
13040;SDS011;6587;42.728;23.288;2023-06-14T03:49:46;11.33;;;7.40;;
13040;SDS011;6587;42.728;23.288;2023-06-14T03:52:14;9.20;;;7.23;;
13040;SDS011;6587;42.728;23.288;2023-06-14T03:54:44;12.37;;;7.13;;
13040;SDS011;6587;42.728;23.288;2023-06-14T03:57:13;10.20;;;6.93;;
13040;SDS011;6587;42.728;23.288;2023-06-14T03:59:41;10.30;;;7.30;;
13040;SDS011;6587;42.728;23.288;2023-06-14T04:02:08;9.70;;;6.97;;
13040;SDS011;6587;42.728;23.288;2023-06-14T04:04:35;14.07;;;7.23;;
13040;SDS011;6587;42.728;23.288;2023-06-14T04:07:05;12.63;;;8.07;;
13040;SDS011;6587;42.728;23.288;2023-06-14T04:09:34;9.63;;;7.07;;
13040;SDS011;6587;42.728;23.288;2023-06-14T04:12:01;9.57;;;6.50;;
13040;SDS011;6587;42.728;23.288;2023-06-14T04:14:32;11.87;;;8.10;;
13040;SDS011;6587;42.728;23.288;2023-06-14T04:16:59;9.67;;;7.33;;
13040;SDS011;6587;42.728;23.288;2023-06-14T04:19:26;10.17;;;7.70;;
13040;SDS011;6587;42.728;23.288;2023-06-14T04:21:53;10.23;;;6.90;;
13040;SDS011;6587;42.728;23.288;2023-06-14T04:24:21;11.90;;;7.53;;
13040;SDS011;6587;42.728;23.288;2023-06-14T04:26:48;9.40;;;7.47;;
13040;SDS011;6587;42.728;23.288;2023-06-14T04:29:17;13.67;;;8.83;;
13040;SDS011;6587;42.728;23.288;2023-06-14T04:31:53;13.57;;;9.07;;
13040;SDS011;6587;42.728;23.288;2023-06-14T04:34:24;13.60;;;8.87;;
13040;SDS011;6587;42.728;23.288;2023-06-14T04:36:55;15.57;;;10.17;;
13040;SDS011;6587;42.728;23.288;2023-06-14T04:39:30;12.77;;;7.37;;
13040;SDS011;6587;42.728;23.288;2023-06-14T04:41:59;12.37;;;8.87;;
13040;SDS011;6587;42.728;23.288;2023-06-14T04:44:29;18.83;;;12.00;;
13040;SDS011;6587;42.728;23.288;2023-06-14T04:47:00;13.60;;;10.07;;
13040;SDS011;6587;42.728;23.288;2023-06-14T04:49:26;12.30;;;8.67;;
13040;SDS011;6587;42.728;23.288;2023-06-14T04:51:56;12.20;;;8.07;;
13040;SDS011;6587;42.728;23.288;2023-06-14T04:54:27;12.57;;;7.77;;
13040;SDS011;6587;42.728;23.288;2023-06-14T04:56:57;11.30;;;7.67;;
13040;SDS011;6587;42.728;23.288;2023-06-14T04:59:25;12.93;;;8.10;;
13040;SDS011;6587;42.728;23.288;2023-06-14T05:01:52;13.67;;;8.83;;
13040;SDS011;6587;42.728;23.288;2023-06-14T05:04:23;10.97;;;7.93;;
13040;SDS011;6587;42.728;23.288;2023-06-14T05:06:52;11.93;;;7.93;;
13040;SDS011;6587;42.728;23.288;2023-06-14T05:09:20;12.13;;;8.73;;
13040;SDS011;6587;42.728;23.288;2023-06-14T05:11:48;16.33;;;9.40;;
13040;SDS011;6587;42.728;23.288;2023-06-14T05:14:15;13.83;;;9.50;;
13040;SDS011;6587;42.728;23.288;2023-06-14T05:16:43;18.43;;;10.23;;
13040;SDS011;6587;42.728;23.288;2023-06-14T05:19:10;15.00;;;9.60;;
13040;SDS011;6587;42.728;23.288;2023-06-14T05:21:38;14.23;;;9.23;;
13040;SDS011;6587;42.728;23.288;2023-06-14T05:24:05;17.60;;;9.93;;
13040;SDS011;6587;42.728;23.288;2023-06-14T05:26:34;19.33;;;10.23;;
13040;SDS011;6587;42.728;23.288;2023-06-14T05:29:01;18.70;;;12.00;;
13040;SDS011;6587;42.728;23.288;2023-06-14T05:31:28;20.80;;;13.27;;
13040;SDS011;6587;42.728;23.288;2023-06-14T05:33:55;24.50;;;13.23;;
13040;SDS011;6587;42.728;23.288;2023-06-14T05:36:22;22.33;;;13.70;;
13040;SDS011;6587;42.728;23.288;2023-06-14T05:38:51;26.53;;;13.30;;
13040;SDS011;6587;42.728;23.288;2023-06-14T05:41:23;21.67;;;13.30;;
13040;SDS011;6587;42.728;23.288;2023-06-14T05:43:51;18.97;;;13.47;;
13040;SDS011;6587;42.728;23.288;2023-06-14T05:46:17;21.17;;;13.27;;
13040;SDS011;6587;42.728;23.288;2023-06-14T05:48:47;22.37;;;14.73;;
13040;SDS011;6587;42.728;23.288;2023-06-14T05:51:14;23.63;;;14.27;;
13040;SDS011;6587;42.728;23.288;2023-06-14T05:53:44;28.93;;;14.73;;
13040;SDS011;6587;42.728;23.288;2023-06-14T05:56:12;21.53;;;14.23;;
13040;SDS011;6587;42.728;23.288;2023-06-14T05:58:39;23.07;;;14.03;;
13040;SDS011;6587;42.728;23.288;2023-06-14T06:01:06;14.30;;;9.63;;
13040;SDS011;6587;42.728;23.288;2023-06-14T06:03:33;13.73;;;9.57;;
13040;SDS011;6587;42.728;23.288;2023-06-14T06:06:00;13.33;;;10.07;;
13040;SDS011;6587;42.728;23.288;2023-06-14T06:08:28;14.80;;;9.37;;
13040;SDS011;6587;42.728;23.288;2023-06-14T06:10:55;15.10;;;10.07;;
13040;SDS011;6587;42.728;23.288;2023-06-14T06:13:23;14.23;;;10.10;;
13040;SDS011;6587;42.728;23.288;2023-06-14T06:15:50;16.27;;;11.33;;
13040;SDS011;6587;42.728;23.288;2023-06-14T06:18:17;16.00;;;11.00;;
13040;SDS011;6587;42.728;23.288;2023-06-14T06:20:44;16.90;;;10.23;;
13040;SDS011;6587;42.728;23.288;2023-06-14T06:23:12;16.80;;;11.13;;
13040;SDS011;6587;42.728;23.288;2023-06-14T06:25:39;16.57;;;11.27;;
13040;SDS011;6587;42.728;23.288;2023-06-14T06:28:06;16.60;;;10.77;;
13040;SDS011;6587;42.728;23.288;2023-06-14T06:30:34;17.20;;;10.87;;
13040;SDS011;6587;42.728;23.288;2023-06-14T06:33:02;18.93;;;11.77;;
13040;SDS011;6587;42.728;23.288;2023-06-14T06:35:29;14.97;;;10.30;;
13040;SDS011;6587;42.728;23.288;2023-06-14T06:37:58;13.73;;;10.00;;
13040;SDS011;6587;42.728;23.288;2023-06-14T06:40:26;13.50;;;10.43;;
13040;SDS011;6587;42.728;23.288;2023-06-14T06:42:52;14.27;;;10.80;;
13040;SDS011;6587;42.728;23.288;2023-06-14T06:45:19;18.50;;;11.67;;
13040;SDS011;6587;42.728;23.288;2023-06-14T06:47:49;24.80;;;12.90;;
13040;SDS011;6587;42.728;23.288;2023-06-14T06:50:17;17.30;;;12.17;;
13040;SDS011;6587;42.728;23.288;2023-06-14T06:52:45;17.83;;;13.23;;
13040;SDS011;6587;42.728;23.288;2023-06-14T06:55:11;19.10;;;13.27;;
13040;SDS011;6587;42.728;23.288;2023-06-14T06:57:38;20.60;;;13.07;;
13040;SDS011;6587;42.728;23.288;2023-06-14T07:00:07;18.17;;;13.57;;
13040;SDS011;6587;42.728;23.288;2023-06-14T07:02:35;20.87;;;13.87;;
13040;SDS011;6587;42.728;23.288;2023-06-14T07:05:04;22.50;;;14.97;;
13040;SDS011;6587;42.728;23.288;2023-06-14T07:07:31;22.33;;;14.77;;
13040;SDS011;6587;42.728;23.288;2023-06-14T07:09:58;19.37;;;12.50;;
13040;SDS011;6587;42.728;23.288;2023-06-14T07:12:25;19.07;;;13.87;;
13040;SDS011;6587;42.728;23.288;2023-06-14T07:14:52;17.40;;;13.23;;
13040;SDS011;6587;42.728;23.288;2023-06-14T07:17:19;22.50;;;15.20;;
13040;SDS011;6587;42.728;23.288;2023-06-14T07:19:47;21.40;;;15.73;;
13040;SDS011;6587;42.728;23.288;2023-06-14T07:22:16;19.83;;;14.87;;
13040;SDS011;6587;42.728;23.288;2023-06-14T07:24:43;16.67;;;13.47;;
13040;SDS011;6587;42.728;23.288;2023-06-14T07:27:10;18.63;;;14.33;;
13040;SDS011;6587;42.728;23.288;2023-06-14T07:29:38;20.97;;;14.90;;
13040;SDS011;6587;42.728;23.288;2023-06-14T07:32:06;23.83;;;15.20;;
13040;SDS011;6587;42.728;23.288;2023-06-14T07:34:33;21.90;;;14.73;;
13040;SDS011;6587;42.728;23.288;2023-06-14T07:37:00;27.37;;;15.27;;
13040;SDS011;6587;42.728;23.288;2023-06-14T07:39:28;19.47;;;14.27;;
13040;SDS011;6587;42.728;23.288;2023-06-14T07:41:55;17.80;;;12.80;;
13040;SDS011;6587;42.728;23.288;2023-06-14T07:44:22;19.90;;;14.90;;
13040;SDS011;6587;42.728;23.288;2023-06-14T07:46:49;19.33;;;15.50;;
13040;SDS011;6587;42.728;23.288;2023-06-14T07:49:16;23.47;;;15.03;;
13040;SDS011;6587;42.728;23.288;2023-06-14T07:51:42;18.27;;;15.20;;
13040;SDS011;6587;42.728;23.288;2023-06-14T07:54:11;19.53;;;13.60;;
13040;SDS011;6587;42.728;23.288;2023-06-14T07:56:39;18.20;;;12.87;;
13040;SDS011;6587;42.728;23.288;2023-06-14T07:59:06;15.13;;;12.30;;
13040;SDS011;6587;42.728;23.288;2023-06-14T08:01:33;16.50;;;13.37;;
13040;SDS011;6587;42.728;23.288;2023-06-14T08:04:01;16.70;;;12.73;;
13040;SDS011;6587;42.728;23.288;2023-06-14T08:06:28;16.47;;;11.63;;
13040;SDS011;6587;42.728;23.288;2023-06-14T08:08:55;17.40;;;12.80;;
13040;SDS011;6587;42.728;23.288;2023-06-14T08:11:22;15.30;;;11.67;;
13040;SDS011;6587;42.728;23.288;2023-06-14T08:13:51;19.40;;;14.37;;
13040;SDS011;6587;42.728;23.288;2023-06-14T08:16:18;18.30;;;13.67;;
13040;SDS011;6587;42.728;23.288;2023-06-14T08:18:45;19.20;;;12.60;;
13040;SDS011;6587;42.728;23.288;2023-06-14T08:21:12;14.37;;;11.13;;
13040;SDS011;6587;42.728;23.288;2023-06-14T08:23:40;17.08;;;11.90;;
13040;SDS011;6587;42.728;23.288;2023-06-14T08:26:08;18.13;;;12.63;;
13040;SDS011;6587;42.728;23.288;2023-06-14T08:28:35;18.07;;;12.83;;
13040;SDS011;6587;42.728;23.288;2023-06-14T08:31:03;16.58;;;12.48;;
13040;SDS011;6587;42.728;23.288;2023-06-14T08:33:30;17.48;;;12.88;;
13040;SDS011;6587;42.728;23.288;2023-06-14T08:35:59;24.08;;;12.65;;
13040;SDS011;6587;42.728;23.288;2023-06-14T08:38:25;13.57;;;11.55;;
13040;SDS011;6587;42.728;23.288;2023-06-14T08:40:52;16.10;;;12.30;;
13040;SDS011;6587;42.728;23.288;2023-06-14T08:43:24;17.10;;;11.85;;
13040;SDS011;6587;42.728;23.288;2023-06-14T08:45:51;15.90;;;12.95;;
13040;SDS011;6587;42.728;23.288;2023-06-14T08:48:26;17.27;;;11.80;;
13040;SDS011;6587;42.728;23.288;2023-06-14T08:50:53;14.90;;;11.43;;
13040;SDS011;6587;42.728;23.288;2023-06-14T08:53:27;17.30;;;11.38;;
13040;SDS011;6587;42.728;23.288;2023-06-14T08:55:57;15.80;;;11.65;;
13040;SDS011;6587;42.728;23.288;2023-06-14T08:58:27;16.23;;;11.18;;
13040;SDS011;6587;42.728;23.288;2023-06-14T09:00:55;13.48;;;10.70;;
13040;SDS011;6587;42.728;23.288;2023-06-14T09:03:22;14.07;;;10.75;;
13040;SDS011;6587;42.728;23.288;2023-06-14T09:05:56;13.60;;;10.85;;
13040;SDS011;6587;42.728;23.288;2023-06-14T09:08:26;12.85;;;9.75;;
13040;SDS011;6587;42.728;23.288;2023-06-14T09:10:55;14.25;;;10.15;;
13040;SDS011;6587;42.728;23.288;2023-06-14T09:13:23;13.35;;;10.20;;
13040;SDS011;6587;42.728;23.288;2023-06-14T09:15:50;11.35;;;9.88;;
13040;SDS011;6587;42.728;23.288;2023-06-14T09:18:16;12.25;;;10.20;;
13040;SDS011;6587;42.728;23.288;2023-06-14T09:20:45;11.65;;;9.73;;
13040;SDS011;6587;42.728;23.288;2023-06-14T09:23:14;12.15;;;10.18;;
13040;SDS011;6587;42.728;23.288;2023-06-14T09:25:47;12.55;;;11.20;;
13040;SDS011;6587;42.728;23.288;2023-06-14T09:28:14;11.70;;;9.75;;
13040;SDS011;6587;42.728;23.288;2023-06-14T09:30:41;13.73;;;9.93;;
13040;SDS011;6587;42.728;23.288;2023-06-14T09:33:08;19.15;;;11.20;;
13040;SDS011;6587;42.728;23.288;2023-06-14T09:35:35;16.05;;;10.43;;
13040;SDS011;6587;42.728;23.288;2023-06-14T09:38:02;17.95;;;10.73;;
13040;SDS011;6587;42.728;23.288;2023-06-14T09:40:30;13.68;;;10.48;;
13040;SDS011;6587;42.728;23.288;2023-06-14T09:43:01;15.73;;;11.40;;
13040;SDS011;6587;42.728;23.288;2023-06-14T09:45:30;15.20;;;11.20;;
13040;SDS011;6587;42.728;23.288;2023-06-14T09:47:57;13.23;;;10.30;;
13040;SDS011;6587;42.728;23.288;2023-06-14T09:50:24;13.30;;;10.02;;
13040;SDS011;6587;42.728;23.288;2023-06-14T09:52:52;14.48;;;9.95;;
13040;SDS011;6587;42.728;23.288;2023-06-14T09:55:22;14.63;;;10.10;;
13040;SDS011;6587;42.728;23.288;2023-06-14T09:57:56;13.25;;;10.35;;
13040;SDS011;6587;42.728;23.288;2023-06-14T10:00:24;12.18;;;9.23;;
13040;SDS011;6587;42.728;23.288;2023-06-14T10:02:54;13.25;;;9.30;;
13040;SDS011;6587;42.728;23.288;2023-06-14T10:05:27;14.82;;;10.20;;
13040;SDS011;6587;42.728;23.288;2023-06-14T10:07:56;13.02;;;10.00;;
13040;SDS011;6587;42.728;23.288;2023-06-14T10:10:30;12.07;;;9.50;;
13040;SDS011;6587;42.728;23.288;2023-06-14T10:12:58;12.93;;;10.63;;
13040;SDS011;6587;42.728;23.288;2023-06-14T10:15:28;11.57;;;9.75;;
13040;SDS011;6587;42.728;23.288;2023-06-14T10:17:59;10.93;;;9.40;;
13040;SDS011;6587;42.728;23.288;2023-06-14T10:20:35;11.95;;;9.80;;
13040;SDS011;6587;42.728;23.288;2023-06-14T10:23:10;14.00;;;9.35;;
13040;SDS011;6587;42.728;23.288;2023-06-14T10:25:42;11.63;;;9.80;;
13040;SDS011;6587;42.728;23.288;2023-06-14T10:28:17;12.07;;;9.13;;
13040;SDS011;6587;42.728;23.288;2023-06-14T10:31:03;14.57;;;9.73;;
13040;SDS011;6587;42.728;23.288;2023-06-14T10:33:31;13.20;;;9.55;;
13040;SDS011;6587;42.728;23.288;2023-06-14T10:38:57;11.50;;;10.20;;
13040;SDS011;6587;42.728;23.288;2023-06-14T10:41:25;15.20;;;9.73;;
13040;SDS011;6587;42.728;23.288;2023-06-14T10:46:53;11.55;;;9.38;;
13040;SDS011;6587;42.728;23.288;2023-06-14T10:49:36;14.57;;;9.15;;
13040;SDS011;6587;42.728;23.288;2023-06-14T10:52:07;12.27;;;9.57;;
13040;SDS011;6587;42.728;23.288;2023-06-14T10:57:38;11.45;;;8.43;;
13040;SDS011;6587;42.728;23.288;2023-06-14T11:00:05;12.98;;;10.13;;
13040;SDS011;6587;42.728;23.288;2023-06-14T11:02:48;15.73;;;10.07;;
13040;SDS011;6587;42.728;23.288;2023-06-14T11:05:23;11.82;;;10.60;;
13040;SDS011;6587;42.728;23.288;2023-06-14T11:07:58;14.73;;;9.52;;
13040;SDS011;6587;42.728;23.288;2023-06-14T11:10:38;12.18;;;10.05;;
13040;SDS011;6587;42.728;23.288;2023-06-14T11:13:05;10.43;;;9.35;;
13040;SDS011;6587;42.728;23.288;2023-06-14T11:15:33;11.32;;;10.00;;
13040;SDS011;6587;42.728;23.288;2023-06-14T11:18:02;12.60;;;9.63;;
13040;SDS011;6587;42.728;23.288;2023-06-14T11:20:31;13.25;;;9.38;;
13040;SDS011;6587;42.728;23.288;2023-06-14T11:23:00;10.80;;;9.70;;
13040;SDS011;6587;42.728;23.288;2023-06-14T11:25:28;11.35;;;9.60;;
13040;SDS011;6587;42.728;23.288;2023-06-14T11:27:55;14.40;;;10.60;;
13040;SDS011;6587;42.728;23.288;2023-06-14T11:30:23;12.20;;;9.65;;
13040;SDS011;6587;42.728;23.288;2023-06-14T11:32:51;12.68;;;10.48;;
13040;SDS011;6587;42.728;23.288;2023-06-14T11:35:23;13.63;;;10.93;;
13040;SDS011;6587;42.728;23.288;2023-06-14T11:37:52;12.10;;;10.02;;
13040;SDS011;6587;42.728;23.288;2023-06-14T11:40:22;9.50;;;8.50;;
13040;SDS011;6587;42.728;23.288;2023-06-14T11:42:50;13.35;;;10.18;;
13040;SDS011;6587;42.728;23.288;2023-06-14T11:45:25;14.93;;;11.50;;
13040;SDS011;6587;42.728;23.288;2023-06-14T11:47:54;13.10;;;10.98;;
13040;SDS011;6587;42.728;23.288;2023-06-14T11:50:24;15.43;;;13.15;;
13040;SDS011;6587;42.728;23.288;2023-06-14T11:52:54;14.18;;;11.13;;
13040;SDS011;6587;42.728;23.288;2023-06-14T11:55:21;12.75;;;10.23;;
13040;SDS011;6587;42.728;23.288;2023-06-14T11:57:48;14.73;;;11.13;;
13040;SDS011;6587;42.728;23.288;2023-06-14T12:00:16;11.10;;;9.35;;
13040;SDS011;6587;42.728;23.288;2023-06-14T12:02:51;10.98;;;9.10;;
13040;SDS011;6587;42.728;23.288;2023-06-14T12:05:20;11.48;;;8.60;;
13040;SDS011;6587;42.728;23.288;2023-06-14T12:07:48;11.90;;;8.60;;
13040;SDS011;6587;42.728;23.288;2023-06-14T12:10:18;12.20;;;8.65;;
13040;SDS011;6587;42.728;23.288;2023-06-14T12:12:45;13.45;;;8.57;;
13040;SDS011;6587;42.728;23.288;2023-06-14T12:15:12;9.75;;;8.65;;
13040;SDS011;6587;42.728;23.288;2023-06-14T12:17:39;7.60;;;6.88;;
13040;SDS011;6587;42.728;23.288;2023-06-14T12:20:09;9.93;;;8.27;;
13040;SDS011;6587;42.728;23.288;2023-06-14T12:22:39;8.63;;;7.57;;
13040;SDS011;6587;42.728;23.288;2023-06-14T12:25:27;8.93;;;8.02;;
13040;SDS011;6587;42.728;23.288;2023-06-14T12:27:57;8.52;;;7.03;;
13040;SDS011;6587;42.728;23.288;2023-06-14T12:30:24;9.02;;;7.95;;
13040;SDS011;6587;42.728;23.288;2023-06-14T12:32:51;8.95;;;7.70;;
13040;SDS011;6587;42.728;23.288;2023-06-14T12:35:18;8.27;;;7.47;;
13040;SDS011;6587;42.728;23.288;2023-06-14T12:37:45;8.80;;;7.30;;
13040;SDS011;6587;42.728;23.288;2023-06-14T12:40:12;17.75;;;7.78;;
13040;SDS011;6587;42.728;23.288;2023-06-14T12:42:41;11.50;;;7.80;;
13040;SDS011;6587;42.728;23.288;2023-06-14T12:45:08;8.95;;;7.20;;
13040;SDS011;6587;42.728;23.288;2023-06-14T12:47:36;8.10;;;7.38;;
13040;SDS011;6587;42.728;23.288;2023-06-14T12:50:03;9.82;;;7.45;;
13040;SDS011;6587;42.728;23.288;2023-06-14T12:52:31;9.52;;;7.82;;
13040;SDS011;6587;42.728;23.288;2023-06-14T12:55:01;10.52;;;7.65;;
13040;SDS011;6587;42.728;23.288;2023-06-14T12:57:29;8.02;;;7.05;;
13040;SDS011;6587;42.728;23.288;2023-06-14T12:59:57;7.78;;;6.70;;
13040;SDS011;6587;42.728;23.288;2023-06-14T13:02:26;8.90;;;7.03;;
13040;SDS011;6587;42.728;23.288;2023-06-14T13:04:53;8.68;;;7.78;;
13040;SDS011;6587;42.728;23.288;2023-06-14T13:07:20;9.23;;;7.18;;
13040;SDS011;6587;42.728;23.288;2023-06-14T13:09:47;8.05;;;7.25;;
13040;SDS011;6587;42.728;23.288;2023-06-14T13:12:13;8.07;;;7.28;;
13040;SDS011;6587;42.728;23.288;2023-06-14T13:14:40;7.40;;;6.70;;
13040;SDS011;6587;42.728;23.288;2023-06-14T13:17:09;7.78;;;6.60;;
13040;SDS011;6587;42.728;23.288;2023-06-14T13:19:36;7.40;;;6.40;;
13040;SDS011;6587;42.728;23.288;2023-06-14T13:22:03;10.23;;;6.50;;
13040;SDS011;6587;42.728;23.288;2023-06-14T13:24:30;7.85;;;6.97;;
13040;SDS011;6587;42.728;23.288;2023-06-14T13:26:57;9.57;;;6.35;;
13040;SDS011;6587;42.728;23.288;2023-06-14T13:29:24;7.50;;;6.30;;
13040;SDS011;6587;42.728;23.288;2023-06-14T13:31:52;8.48;;;5.82;;
13040;SDS011;6587;42.728;23.288;2023-06-14T13:34:20;6.90;;;6.20;;
13040;SDS011;6587;42.728;23.288;2023-06-14T13:36:48;12.48;;;6.60;;
13040;SDS011;6587;42.728;23.288;2023-06-14T13:39:16;7.72;;;6.55;;
13040;SDS011;6587;42.728;23.288;2023-06-14T13:41:43;9.40;;;6.72;;
13040;SDS011;6587;42.728;23.288;2023-06-14T13:44:09;7.63;;;6.57;;
13040;SDS011;6587;42.728;23.288;2023-06-14T13:46:39;8.35;;;6.80;;
13040;SDS011;6587;42.728;23.288;2023-06-14T13:49:07;7.68;;;6.55;;
13040;SDS011;6587;42.728;23.288;2023-06-14T13:51:36;8.07;;;6.50;;
13040;SDS011;6587;42.728;23.288;2023-06-14T13:54:03;7.18;;;6.40;;
13040;SDS011;6587;42.728;23.288;2023-06-14T13:56:30;9.25;;;7.30;;
13040;SDS011;6587;42.728;23.288;2023-06-14T13:58:57;10.80;;;7.43;;
13040;SDS011;6587;42.728;23.288;2023-06-14T14:01:25;9.90;;;7.40;;
13040;SDS011;6587;42.728;23.288;2023-06-14T14:03:53;8.93;;;7.73;;
13040;SDS011;6587;42.728;23.288;2023-06-14T14:06:20;8.57;;;7.67;;
13040;SDS011;6587;42.728;23.288;2023-06-14T14:08:49;10.63;;;7.33;;
13040;SDS011;6587;42.728;23.288;2023-06-14T14:11:16;10.70;;;8.07;;
13040;SDS011;6587;42.728;23.288;2023-06-14T14:13:43;9.40;;;7.33;;
13040;SDS011;6587;42.728;23.288;2023-06-14T14:16:12;8.67;;;7.17;;
13040;SDS011;6587;42.728;23.288;2023-06-14T14:18:39;10.40;;;7.50;;
13040;SDS011;6587;42.728;23.288;2023-06-14T14:21:06;9.83;;;7.10;;
13040;SDS011;6587;42.728;23.288;2023-06-14T14:23:34;11.03;;;7.70;;
13040;SDS011;6587;42.728;23.288;2023-06-14T14:26:02;8.17;;;7.00;;
13040;SDS011;6587;42.728;23.288;2023-06-14T14:28:29;8.57;;;7.40;;
13040;SDS011;6587;42.728;23.288;2023-06-14T14:30:57;11.70;;;7.33;;
13040;SDS011;6587;42.728;23.288;2023-06-14T14:33:24;10.43;;;8.07;;
13040;SDS011;6587;42.728;23.288;2023-06-14T14:35:51;10.37;;;8.33;;
13040;SDS011;6587;42.728;23.288;2023-06-14T14:38:18;12.43;;;9.40;;
13040;SDS011;6587;42.728;23.288;2023-06-14T14:40:45;13.80;;;9.73;;
13040;SDS011;6587;42.728;23.288;2023-06-14T14:43:13;12.33;;;8.70;;
13040;SDS011;6587;42.728;23.288;2023-06-14T14:45:40;11.93;;;8.40;;
13040;SDS011;6587;42.728;23.288;2023-06-14T14:48:06;9.47;;;7.93;;
13040;SDS011;6587;42.728;23.288;2023-06-14T14:50:33;11.63;;;8.63;;